createdAt,value
2022-08-16T00:02:24.169Z,89.15
2022-08-16T00:04:51.152Z,89.24
2022-08-16T00:07:17.839Z,89.56
2022-08-16T00:09:45.140Z,89.60
2022-08-16T00:12:12.249Z,89.44
2022-08-16T00:14:44.725Z,89.59
2022-08-16T00:17:18.630Z,89.48
2022-08-16T00:19:46.191Z,89.83
2022-08-16T00:22:15.309Z,89.88
2022-08-16T00:24:43.234Z,89.83
2022-08-16T00:27:11.792Z,89.62
2022-08-16T00:29:38.716Z,89.67
2022-08-16T00:32:06.697Z,90.02
2022-08-16T00:34:43.543Z,89.95
2022-08-16T00:37:12.310Z,90.02
2022-08-16T00:39:43.913Z,90.22
2022-08-16T00:42:10.509Z,90.26
2022-08-16T00:44:37.403Z,90.15
2022-08-16T00:47:08.567Z,90.48
2022-08-16T00:49:39.527Z,90.37
2022-08-16T00:52:29.431Z,90.62
2022-08-16T00:54:56.915Z,90.53
2022-08-16T00:57:23.878Z,90.50
2022-08-16T00:59:58.859Z,90.52
2022-08-16T01:02:30.389Z,90.53
2022-08-16T01:05:09.020Z,90.57
2022-08-16T01:07:51.323Z,90.81
2022-08-16T01:10:21.682Z,90.87
2022-08-16T01:13:00.910Z,90.26
2022-08-16T01:15:27.845Z,90.13
2022-08-16T01:17:57.471Z,89.97
2022-08-16T01:20:30.120Z,89.58
2022-08-16T01:23:21.132Z,89.53
2022-08-16T01:26:00.248Z,89.30
2022-08-16T01:28:38.958Z,88.82
2022-08-16T01:31:13.527Z,88.82
2022-08-16T01:33:40.096Z,89.13
2022-08-16T01:36:11.905Z,89.31
2022-08-16T01:38:49.285Z,89.14
2022-08-16T01:41:23.673Z,88.90
2022-08-16T01:43:53.773Z,89.05
2022-08-16T01:46:39.661Z,88.95
2022-08-16T01:49:22.388Z,88.95
2022-08-16T01:52:08.640Z,88.60
2022-08-16T01:54:54.769Z,88.30
2022-08-16T01:57:22.836Z,88.47
2022-08-16T01:59:54.631Z,88.50
2022-08-16T02:02:27.254Z,88.59
2022-08-16T02:04:55.918Z,89.05
2022-08-16T02:07:24.006Z,88.72
2022-08-16T02:09:58.914Z,88.89
2022-08-16T02:12:39.820Z,89.01
2022-08-16T02:15:16.159Z,88.83
2022-08-16T02:17:43.311Z,89.12
2022-08-16T02:20:11.927Z,88.96
2022-08-16T02:22:39.000Z,88.75
2022-08-16T02:25:09.990Z,88.74
2022-08-16T02:27:36.725Z,89.02
2022-08-16T02:30:06.889Z,88.85
2022-08-16T02:32:49.932Z,88.71
2022-08-16T02:35:18.006Z,88.61
2022-08-16T02:37:52.757Z,88.33
2022-08-16T02:40:20.914Z,87.07
2022-08-16T02:42:50.057Z,87.00
2022-08-16T02:45:18.857Z,86.77
2022-08-16T02:48:00.978Z,86.80
2022-08-16T02:50:55.092Z,87.04
2022-08-16T02:53:23.525Z,87.26
2022-08-16T02:55:50.701Z,87.25
2022-08-16T02:58:17.310Z,87.38
2022-08-16T03:00:45.396Z,87.19
2022-08-16T03:03:17.566Z,87.35
2022-08-16T03:05:50.076Z,87.55
2022-08-16T03:08:50.829Z,87.85
2022-08-16T03:11:16.730Z,87.44
2022-08-16T03:13:56.444Z,87.51
2022-08-16T03:16:36.589Z,87.58
2022-08-16T03:19:06.698Z,87.38
2022-08-16T03:21:38.308Z,87.34
2022-08-16T03:24:06.337Z,87.16
2022-08-16T03:26:52.755Z,87.25
2022-08-16T03:29:19.213Z,86.90
2022-08-16T03:31:45.661Z,87.04
2022-08-16T03:34:18.983Z,86.63
2022-08-16T03:36:45.738Z,86.43
2022-08-16T03:39:14.995Z,85.89
2022-08-16T03:41:50.475Z,85.75
2022-08-16T03:44:44.351Z,85.14
2022-08-16T03:47:04.620Z,84.57
2022-08-16T03:49:37.350Z,84.59
2022-08-16T03:52:04.466Z,84.71
2022-08-16T03:54:30.932Z,84.63
2022-08-16T03:56:58.602Z,84.68
2022-08-16T03:59:25.428Z,84.43
2022-08-16T04:01:56.149Z,84.55
2022-08-16T04:04:33.252Z,84.54
2022-08-16T04:07:02.811Z,84.33
2022-08-16T04:09:35.363Z,83.85
2022-08-16T04:12:04.656Z,83.65
2022-08-16T04:14:46.892Z,83.87
2022-08-16T04:17:15.671Z,83.90
2022-08-16T04:19:45.527Z,83.99
2022-08-16T04:22:12.978Z,84.17
2022-08-16T04:24:39.439Z,84.41
2022-08-16T04:27:08.960Z,84.06
2022-08-16T04:29:44.131Z,84.50
2022-08-16T04:32:13.883Z,84.12
2022-08-16T04:34:40.433Z,84.12
2022-08-16T04:37:07.323Z,84.03
2022-08-16T04:39:45.783Z,84.04
2022-08-16T04:42:14.092Z,84.25
2022-08-16T04:44:53.692Z,83.64
2022-08-16T04:47:24.363Z,83.35
2022-08-16T04:49:52.310Z,82.91
2022-08-16T04:52:33.251Z,83.42
2022-08-16T04:55:11.932Z,83.46
2022-08-16T04:57:39.458Z,83.85
2022-08-16T05:00:32.913Z,83.99
2022-08-16T05:03:01.260Z,84.00
2022-08-16T05:05:32.978Z,83.94
2022-08-16T05:08:29.382Z,84.08
2022-08-16T05:10:50.026Z,83.78
2022-08-16T05:13:18.957Z,83.31
2022-08-16T05:15:47.010Z,83.33
2022-08-16T05:18:17.099Z,83.10
2022-08-16T05:21:01.509Z,82.83
2022-08-16T05:23:35.174Z,83.11
2022-08-16T05:26:02.391Z,83.39
2022-08-16T05:28:37.706Z,82.97
2022-08-16T05:31:06.806Z,82.88
2022-08-16T05:33:33.549Z,83.10
2022-08-16T05:36:00.484Z,83.19
2022-08-16T05:38:34.841Z,83.22
2022-08-16T05:41:06.953Z,83.31
2022-08-16T05:43:43.564Z,83.10
2022-08-16T05:46:30.257Z,83.31
2022-08-16T05:49:08.880Z,82.90
2022-08-16T05:51:40.262Z,83.40
2022-08-16T05:54:11.221Z,83.14
2022-08-16T05:56:39.403Z,83.88
2022-08-16T05:59:06.711Z,84.10
2022-08-16T06:01:38.347Z,84.07
2022-08-16T06:04:13.557Z,84.34
2022-08-16T06:06:56.566Z,84.28
2022-08-16T06:09:25.267Z,84.11
2022-08-16T06:11:52.240Z,84.09
2022-08-16T06:14:18.950Z,84.20
2022-08-16T06:16:50.777Z,83.61
2022-08-16T06:19:17.504Z,82.22
2022-08-16T06:21:44.011Z,82.10
2022-08-16T06:24:53.407Z,80.80
2022-08-16T06:26:57.399Z,80.16
2022-08-16T06:29:24.828Z,79.45
2022-08-16T06:34:55.917Z,78.51
2022-08-16T06:37:04.369Z,77.79
2022-08-16T06:39:31.060Z,76.22
2022-08-16T06:42:00.862Z,76.74
2022-08-16T06:44:27.370Z,76.02
2022-08-16T06:46:54.108Z,75.27
2022-08-16T06:49:20.684Z,75.48
2022-08-16T06:51:48.269Z,75.54
2022-08-16T06:54:16.347Z,74.84
2022-08-16T06:56:43.396Z,75.38
2022-08-16T06:59:10.405Z,74.10
2022-08-16T07:01:43.202Z,74.44
2022-08-16T07:04:12.958Z,73.36
2022-08-16T07:06:59.681Z,73.30
2022-08-16T07:09:29.871Z,72.31
2022-08-16T07:12:03.500Z,71.81
2022-08-16T07:14:31.027Z,71.83
2022-08-16T07:16:58.719Z,71.34
2022-08-16T07:20:03.648Z,71.49
2022-08-16T07:22:38.906Z,70.39
2022-08-16T07:25:02.116Z,69.72
2022-08-16T07:27:28.623Z,70.02
2022-08-16T07:29:58.707Z,68.84
2022-08-16T07:32:29.654Z,67.64
2022-08-16T07:34:58.450Z,67.47
2022-08-16T07:37:24.897Z,68.23
2022-08-16T07:39:51.976Z,68.06
2022-08-16T07:42:35.038Z,66.44
2022-08-16T07:45:03.288Z,66.67
2022-08-16T07:47:34.212Z,67.36
2022-08-16T07:50:05.654Z,65.84
2022-08-16T07:52:34.431Z,65.64
2022-08-16T07:55:00.891Z,66.35
2022-08-16T07:57:27.670Z,66.09
2022-08-16T07:59:57.161Z,65.24
2022-08-16T08:02:27.299Z,64.65
2022-08-16T08:04:55.236Z,62.92
2022-08-16T08:07:21.785Z,64.01
2022-08-16T08:09:53.908Z,61.81
2022-08-16T08:12:32.336Z,61.34
2022-08-16T08:15:04.166Z,61.42
2022-08-16T08:17:42.783Z,60.84
2022-08-16T08:20:13.489Z,59.95
2022-08-16T08:22:52.219Z,60.82
2022-08-16T08:25:19.154Z,59.90
2022-08-16T08:27:46.054Z,58.64
2022-08-16T08:30:51.296Z,57.80
2022-08-16T08:33:00.908Z,58.56
2022-08-16T08:35:28.486Z,58.08
2022-08-16T08:37:56.425Z,57.17
2022-08-16T08:40:24.296Z,56.97
2022-08-16T08:42:51.217Z,57.54
2022-08-16T08:45:46.958Z,57.83
2022-08-16T08:48:11.566Z,56.95
2022-08-16T08:50:58.461Z,56.59
2022-08-16T08:53:30.610Z,57.02
2022-08-16T08:55:59.025Z,56.19
2022-08-16T08:58:26.048Z,56.17
2022-08-16T09:01:01.685Z,56.08
2022-08-16T09:03:28.794Z,56.20
2022-08-16T09:05:59.205Z,56.72
2022-08-16T09:08:27.370Z,55.77
2022-08-16T09:11:02.525Z,55.53
2022-08-16T09:13:32.701Z,54.96
2022-08-16T09:15:59.566Z,54.28
2022-08-16T09:18:35.668Z,53.87
2022-08-16T09:21:04.408Z,53.77
2022-08-16T09:23:36.272Z,53.07
2022-08-16T09:26:44.183Z,51.53
2022-08-16T09:29:15.960Z,50.56
2022-08-16T09:31:41.838Z,50.11
2022-08-16T09:34:09.227Z,50.15
2022-08-16T09:36:37.322Z,50.43
2022-08-16T09:39:16.292Z,50.43
2022-08-16T09:41:43.767Z,52.14
2022-08-16T09:45:12.703Z,51.01
2022-08-16T09:47:10.908Z,50.47
2022-08-16T09:49:37.553Z,50.34
2022-08-16T09:52:09.449Z,49.13
2022-08-16T09:54:36.217Z,48.16
2022-08-16T09:57:02.962Z,49.20
2022-08-16T09:59:30.493Z,47.88
2022-08-16T10:01:57.266Z,48.49
2022-08-16T10:04:31.143Z,49.09
2022-08-16T10:07:11.781Z,46.90
2022-08-16T10:09:53.818Z,47.14
2022-08-16T10:12:44.452Z,47.23
2022-08-16T10:15:17.787Z,46.62
2022-08-16T10:18:00.311Z,45.71
2022-08-16T10:20:28.933Z,46.26
2022-08-16T10:23:05.436Z,46.27
2022-08-16T10:27:19.575Z,45.46
2022-08-16T10:28:29.301Z,45.90
2022-08-16T10:30:58.912Z,47.03
2022-08-16T10:33:27.156Z,47.13
2022-08-16T10:35:57.664Z,47.00
2022-08-16T10:38:28.341Z,44.58
2022-08-16T10:40:54.809Z,43.97
2022-08-16T10:43:21.375Z,43.15
2022-08-16T10:46:00.109Z,42.95
2022-08-16T10:48:28.782Z,43.27
2022-08-16T10:50:59.504Z,43.72
2022-08-16T10:53:32.819Z,44.51
2022-08-16T10:56:44.287Z,43.67
2022-08-16T10:58:57.658Z,44.48
2022-08-16T11:02:21.630Z,43.48
2022-08-16T11:10:20.906Z,42.67
2022-08-16T11:12:52.939Z,42.86
2022-08-16T11:15:20.239Z,41.70
2022-08-16T11:18:21.556Z,41.79
2022-08-16T11:20:41.665Z,40.89
2022-08-16T11:23:09.843Z,41.46
2022-08-16T11:31:11.061Z,41.64
2022-08-16T11:33:55.644Z,42.43
2022-08-16T11:36:25.031Z,40.65
2022-08-16T11:38:57.811Z,40.98
2022-08-16T11:41:25.984Z,40.04
2022-08-16T11:43:55.802Z,40.43
2022-08-16T11:46:43.442Z,40.56
2022-08-16T11:49:13.251Z,40.51
2022-08-16T11:51:43.793Z,39.72
2022-08-16T11:54:20.816Z,39.57
2022-08-16T11:56:56.508Z,40.01
2022-08-16T11:59:24.459Z,39.66
2022-08-16T12:01:59.796Z,39.71
2022-08-16T12:04:31.246Z,39.73
2022-08-16T12:06:58.674Z,40.09
2022-08-16T12:09:29.502Z,40.32
2022-08-16T12:11:57.492Z,39.61
2022-08-16T12:14:24.181Z,39.52
2022-08-16T12:16:55.443Z,39.33
2022-08-16T12:19:33.649Z,38.80
2022-08-16T12:22:00.609Z,38.01
2022-08-16T12:24:27.949Z,37.81
2022-08-16T12:26:54.887Z,37.64
2022-08-16T12:29:21.905Z,37.71
2022-08-16T12:32:00.597Z,37.37
2022-08-16T12:34:36.893Z,37.38
2022-08-16T12:37:08.929Z,37.29
2022-08-16T12:39:38.002Z,36.91
2022-08-16T12:42:13.611Z,37.73
2022-08-16T12:44:43.351Z,37.92
2022-08-16T12:47:28.390Z,37.39
2022-08-16T12:49:54.893Z,37.41
2022-08-16T12:52:33.986Z,37.71
2022-08-16T12:55:02.458Z,37.51
2022-08-16T12:57:36.604Z,37.56
2022-08-16T13:00:07.842Z,36.79
2022-08-16T13:02:36.646Z,35.90
2022-08-16T13:05:04.354Z,35.93
2022-08-16T13:07:42.462Z,35.77
2022-08-16T13:10:21.010Z,35.69
2022-08-16T13:12:58.436Z,35.87
2022-08-16T13:15:28.161Z,35.28
2022-08-16T13:17:54.800Z,35.51
2022-08-16T13:20:23.738Z,35.90
2022-08-16T13:22:54.182Z,35.44
2022-08-16T13:25:23.483Z,35.66
2022-08-16T13:28:02.179Z,35.75
2022-08-16T13:30:35.762Z,35.53
2022-08-16T13:33:11.249Z,35.18
2022-08-16T13:35:42.789Z,35.50
2022-08-16T13:38:09.794Z,35.75
2022-08-16T13:40:37.595Z,35.40
2022-08-16T13:43:04.260Z,35.14
2022-08-16T13:45:36.124Z,35.08
2022-08-16T13:48:05.427Z,34.76
2022-08-16T13:50:49.647Z,34.76
2022-08-16T13:53:18.653Z,33.94
2022-08-16T13:55:59.097Z,33.86
2022-08-16T13:58:34.891Z,33.99
2022-08-16T14:01:03.257Z,34.16
2022-08-16T14:03:29.725Z,33.99
2022-08-16T14:05:56.748Z,33.52
2022-08-16T14:08:27.161Z,33.85
2022-08-16T14:10:54.232Z,33.86
2022-08-16T14:13:21.721Z,33.41
2022-08-16T14:15:48.707Z,33.31
2022-08-16T14:18:20.481Z,33.32
2022-08-16T14:20:48.406Z,33.67
2022-08-16T14:23:15.489Z,33.30
2022-08-16T14:25:42.054Z,33.54
2022-08-16T14:28:09.768Z,33.58
2022-08-16T14:30:37.929Z,33.53
2022-08-16T14:33:07.025Z,33.60
2022-08-16T14:35:48.511Z,33.25
2022-08-16T14:38:18.195Z,33.34
2022-08-16T14:40:51.073Z,33.37
2022-08-16T14:43:21.994Z,35.04
2022-08-16T14:45:50.295Z,33.92
2022-08-16T14:48:21.501Z,33.60
2022-08-16T14:50:51.931Z,33.27
2022-08-16T14:53:18.370Z,32.33
2022-08-16T14:55:45.161Z,32.21
2022-08-16T14:58:19.368Z,31.70
2022-08-16T15:00:47.731Z,31.91
2022-08-16T15:03:17.304Z,32.20
2022-08-16T15:05:44.222Z,32.88
2022-08-16T15:08:10.861Z,33.25
2022-08-16T15:10:39.096Z,32.26
2022-08-16T15:13:12.352Z,32.63
2022-08-16T15:15:38.938Z,32.64
2022-08-16T15:18:11.732Z,32.43
2022-08-16T15:20:39.089Z,32.71
2022-08-16T15:23:08.291Z,32.25
2022-08-16T15:25:43.138Z,32.77
2022-08-16T15:28:30.592Z,31.89
2022-08-16T15:31:00.846Z,31.41
2022-08-16T15:33:32.249Z,31.52
2022-08-16T15:35:59.711Z,31.87
2022-08-16T15:38:56.783Z,31.98
2022-08-16T15:41:31.499Z,31.70
2022-08-16T15:44:05.338Z,31.81
2022-08-16T15:46:56.761Z,31.89
2022-08-16T15:49:34.662Z,31.65
2022-08-16T15:52:29.138Z,31.58
2022-08-16T15:54:58.563Z,31.28
2022-08-16T15:57:27.661Z,30.49
2022-08-16T15:59:55.967Z,31.05
2022-08-16T16:02:31.092Z,31.10
2022-08-16T16:05:03.388Z,30.90
2022-08-16T16:07:33.284Z,31.07
2022-08-16T16:10:00.983Z,30.79
2022-08-16T16:15:17.646Z,30.60
2022-08-16T16:17:44.118Z,31.05
2022-08-16T16:20:17.830Z,30.51
2022-08-16T16:22:44.553Z,30.52
2022-08-16T16:25:11.408Z,30.19
2022-08-16T16:27:37.996Z,30.68
2022-08-16T16:30:32.488Z,30.65
2022-08-16T16:32:51.956Z,30.43
2022-08-16T16:35:18.553Z,29.68
2022-08-16T16:37:45.088Z,29.65
2022-08-16T16:40:12.778Z,30.08
2022-08-16T16:42:40.916Z,30.49
2022-08-16T16:45:11.124Z,30.78
2022-08-16T16:47:41.631Z,30.99
2022-08-16T16:50:09.761Z,31.46
2022-08-16T16:52:44.774Z,31.83
2022-08-16T16:55:14.707Z,32.46
2022-08-16T16:58:01.016Z,32.56
2022-08-16T17:00:38.115Z,32.79
2022-08-16T17:03:06.315Z,33.23
2022-08-16T17:05:57.427Z,33.90
2022-08-16T17:08:30.562Z,33.86
2022-08-16T17:10:57.617Z,34.10
2022-08-16T17:13:24.457Z,34.86
2022-08-16T17:15:52.463Z,34.56
2022-08-16T17:19:17.558Z,34.75
2022-08-16T17:21:07.127Z,34.97
2022-08-16T17:23:58.389Z,35.31
2022-08-16T17:26:21.196Z,35.34
2022-08-16T17:28:59.918Z,35.34
2022-08-16T17:31:38.463Z,35.00
2022-08-16T17:34:29.225Z,35.36
2022-08-16T17:36:54.533Z,35.64
2022-08-16T17:39:21.230Z,35.83
2022-08-16T17:41:51.080Z,35.93
2022-08-16T17:44:19.208Z,35.68
2022-08-16T17:46:52.258Z,36.45
2022-08-16T17:49:19.419Z,36.39
2022-08-16T17:51:45.895Z,36.30
2022-08-16T17:54:20.254Z,36.86
2022-08-16T17:57:00.833Z,37.81
2022-08-16T17:59:28.164Z,37.30
2022-08-16T18:01:55.644Z,37.86
2022-08-16T18:04:48.958Z,38.05
2022-08-16T18:07:08.660Z,38.54
2022-08-16T18:09:36.833Z,38.88
2022-08-16T18:12:54.784Z,38.77
2022-08-16T18:15:10.344Z,38.97
2022-08-16T18:17:36.764Z,39.76
2022-08-16T18:20:28.937Z,39.53
2022-08-16T18:23:03.053Z,40.08
2022-08-16T18:25:29.494Z,39.74
2022-08-16T18:27:56.072Z,39.58
2022-08-16T18:30:22.502Z,39.72
2022-08-16T18:32:50.409Z,39.25
2022-08-16T18:35:18.321Z,39.18
2022-08-16T18:37:44.866Z,39.22
2022-08-16T18:40:12.498Z,38.97
2022-08-16T18:42:39.086Z,39.02
2022-08-16T18:45:06.207Z,39.15
2022-08-16T18:47:32.658Z,39.20
2022-08-16T18:50:00.405Z,39.27
2022-08-16T18:52:26.851Z,39.36
2022-08-16T18:55:01.451Z,39.81
2022-08-16T18:57:29.635Z,41.20
2022-08-16T18:59:56.094Z,40.98
2022-08-16T19:02:57.170Z,41.03
2022-08-16T19:05:24.330Z,41.59
2022-08-16T19:07:50.954Z,42.09
2022-08-16T19:10:18.136Z,41.91
2022-08-16T19:12:44.638Z,42.46
2022-08-16T19:15:19.237Z,43.57
2022-08-16T19:17:45.935Z,44.06
2022-08-16T19:20:14.308Z,46.14
2022-08-16T19:25:49.044Z,46.43
2022-08-16T19:28:48.903Z,46.31
2022-08-16T19:31:19.781Z,45.38
2022-08-16T19:33:54.457Z,45.72
2022-08-16T19:36:42.325Z,46.26
2022-08-16T19:39:13.584Z,46.28
2022-08-16T19:41:53.251Z,46.63
2022-08-16T19:44:20.481Z,46.63
2022-08-16T19:46:48.606Z,47.60
2022-08-16T19:49:16.507Z,47.69
2022-08-16T19:51:44.855Z,48.00
2022-08-16T19:54:11.304Z,48.51
2022-08-16T19:56:37.888Z,48.97
2022-08-16T19:59:21.912Z,49.28
2022-08-16T20:01:51.786Z,49.20
2022-08-16T20:04:18.675Z,49.63
2022-08-16T20:06:45.173Z,49.56
2022-08-16T20:09:14.846Z,49.36
2022-08-16T20:11:43.573Z,49.78
2022-08-16T20:14:10.021Z,50.07
2022-08-16T20:16:36.459Z,50.08
2022-08-16T20:19:03.866Z,50.31
2022-08-16T20:21:30.453Z,50.40
2022-08-16T20:24:15.870Z,49.98
2022-08-16T20:26:43.375Z,50.71
2022-08-16T20:29:10.184Z,50.90
2022-08-16T20:31:36.611Z,51.08
2022-08-16T20:34:03.069Z,51.24
2022-08-16T20:36:29.837Z,51.34
2022-08-16T20:38:57.762Z,51.51
2022-08-16T20:41:24.218Z,51.57
2022-08-16T20:43:50.667Z,52.11
2022-08-16T20:46:21.545Z,53.09
2022-08-16T20:48:48.033Z,52.08
2022-08-16T20:51:14.551Z,51.78
2022-08-16T20:53:41.747Z,52.21
2022-08-16T20:56:09.948Z,52.10
2022-08-16T20:58:37.536Z,52.13
2022-08-16T21:01:05.550Z,52.22
2022-08-16T21:03:32.118Z,52.59
2022-08-16T21:05:58.763Z,52.61
2022-08-16T21:08:50.432Z,53.13
2022-08-16T21:11:11.836Z,52.92
2022-08-16T21:13:42.632Z,53.08
2022-08-16T21:16:10.168Z,52.89
2022-08-16T21:18:36.610Z,52.78
2022-08-16T21:21:03.087Z,51.75
2022-08-16T21:23:30.058Z,51.63
2022-08-16T21:25:58.686Z,51.40
2022-08-16T21:28:41.959Z,51.53
2022-08-16T21:31:14.679Z,51.47
2022-08-16T21:33:42.522Z,52.20
2022-08-16T21:36:09.603Z,52.38
2022-08-16T21:38:36.082Z,52.79
2022-08-16T21:41:04.439Z,53.36
2022-08-16T21:43:33.118Z,53.65
2022-08-16T21:46:04.145Z,53.45
2022-08-16T21:48:33.860Z,53.60
2022-08-16T21:51:07.491Z,53.50
2022-08-16T21:53:34.624Z,53.90
2022-08-16T21:56:01.790Z,54.35
2022-08-16T21:58:28.446Z,54.20
2022-08-16T22:00:55.014Z,54.88
2022-08-16T22:03:21.692Z,55.06
2022-08-16T22:06:12.575Z,54.95
2022-08-16T22:08:35.825Z,55.11
2022-08-16T22:11:16.728Z,55.44
2022-08-16T22:13:43.206Z,55.84
2022-08-16T22:16:17.955Z,55.47
2022-08-16T22:18:52.464Z,55.78
2022-08-16T22:21:19.314Z,56.03
2022-08-16T22:23:45.750Z,56.01
2022-08-16T22:26:29.118Z,55.82
2022-08-16T22:28:57.707Z,56.00
2022-08-16T22:31:24.143Z,56.07
2022-08-16T22:33:50.589Z,56.60
2022-08-16T22:36:17.023Z,56.61
2022-08-16T22:38:53.516Z,56.53
2022-08-16T22:41:23.266Z,56.81
2022-08-16T22:43:49.725Z,56.73
2022-08-16T22:46:16.167Z,57.00
2022-08-16T22:48:43.093Z,56.89
2022-08-16T22:51:09.542Z,56.91
2022-08-16T22:53:37.418Z,56.85
2022-08-16T22:56:04.381Z,57.13
2022-08-16T22:58:34.225Z,57.35
2022-08-16T23:01:04.432Z,57.32
2022-08-16T23:03:30.991Z,56.92
2022-08-16T23:06:01.325Z,57.13
2022-08-16T23:08:38.676Z,57.19
2022-08-16T23:11:10.352Z,57.24
2022-08-16T23:13:37.157Z,57.46
2022-08-16T23:16:11.184Z,57.47
2022-08-16T23:18:38.944Z,57.82
2022-08-16T23:21:09.411Z,58.02
2022-08-16T23:23:37.156Z,58.27
2022-08-16T23:26:47.263Z,58.36
2022-08-16T23:28:50.993Z,58.60
2022-08-16T23:31:17.554Z,58.79
2022-08-16T23:33:44.810Z,58.83
2022-08-16T23:36:11.469Z,58.87
2022-08-16T23:38:39.481Z,58.89
2022-08-16T23:41:09.102Z,59.00
2022-08-16T23:43:43.081Z,58.88
2022-08-16T23:46:16.809Z,59.03
2022-08-16T23:49:57.261Z,59.54
2022-08-16T23:51:30.787Z,59.36
2022-08-16T23:53:57.243Z,58.95
2022-08-16T23:56:23.706Z,59.22
2022-08-16T23:58:54.382Z,59.33
